Diego Garcia (NKW/FJDG)




Flight Aircraft Arriving
CMB7749 B752
WSAP - Paya Lebar Airport
Singapore Singapore, Singapore
CMB7758 B752
OBBI - Bahrain International Airport
Bahrain Manama, Bahrain
Flight Aircraft Departing
CMB7744 B752
WSAP - Paya Lebar Airport
Singapore Singapore, Singapore
CMB7747 B752
OBBI - Bahrain International Airport
Bahrain Manama, Bahrain
CMB7761 B752
OOTH - RAFO Thumrait
Oman Thumrait, Oman
Airport Information
Location: Diego Garcia, GB
Coordinates: -7.31327 / 72.4111
Elevation:
Time Offset:
Local Time:
UTC Time:
Jet A Price: $/lbs

Current Weather
METAR:
Warning: file_get_contents(https://api.aviationapi.com/v1/weather/metar?apt=FJDG): failed to open stream: HTTP request failed! HTTP/1.1 500 Internal Server Error in /var/www/capitollogistics/lib/skins/urban/hub/aptview.php on line 198
TAF: TAF FJDG 050900Z 0509/0615 VRB06KT 9999 VCSH FEW015 SCT050 QNH2973INS TEMPO 0511/0517 25015G25KT TSRA SCT020CB BKN050 BECMG 0605/0606 VRB06KT 9999 NSW FEW015 SCT050 QNH2973INS TX32/0509Z TN26/0600Z

Recent Arrivals
Date Flight Type Depart
07/12/2019 CMB861 B752 RAFO Thumrait (OOTH)
03/13/2019 CMB847 B752 Bahrain International Airport (OBBI)
Recent Departures
Date Flight Type Arrive
07/15/2019 CMB849 B752 Paya Lebar Airport (WSAP)
03/13/2019 CMB849 B752 Paya Lebar Airport (WSAP)